TimeEDT,TemperatureF,Dew PointF,Humidity,Sea Level PressureIn,VisibilityMPH,Wind Direction,Wind SpeedMPH,Gust SpeedMPH,PrecipitationIn,Events,Conditions,WindDirDegrees,DateUTC
12:15 AM,58.3,23.4,26,29.81,10.0,SSW,17.3,23.0,N/A,,Clear,200,2014-03-22 04:15:00
12:35 AM,57.6,23.7,27,29.79,10.0,South,12.7,-,N/A,,Clear,190,2014-03-22 04:35:00
12:55 AM,56.7,24.3,29,29.79,10.0,SSW,15.0,-,N/A,,Clear,200,2014-03-22 04:55:00
1:15 AM,56.3,24.6,29,29.78,10.0,SSW,12.7,-,N/A,,Clear,200,2014-03-22 05:15:00
1:35 AM,56.3,24.6,29,29.78,10.0,SSW,15.0,-,N/A,,Clear,200,2014-03-22 05:35:00
1:55 AM,55.9,24.1,29,29.78,10.0,SSW,15.0,19.6,N/A,,Clear,200,2014-03-22 05:55:00
2:15 AM,55.0,24.3,30,29.78,10.0,SSW,15.0,-,N/A,,Scattered Clouds,200,2014-03-22 06:15:00
2:35 AM,54.9,24.3,31,29.77,10.0,SSW,13.8,-,N/A,,Mostly Cloudy,210,2014-03-22 06:35:00
2:55 AM,54.1,25.2,33,29.77,10.0,SSW,13.8,-,N/A,,Mostly Cloudy,200,2014-03-22 06:55:00
3:15 AM,53.4,26.1,35,29.76,10.0,SSW,12.7,-,N/A,,Mostly Cloudy,200,2014-03-22 07:15:00
3:35 AM,53.6,26.1,35,29.76,10.0,SSW,12.7,-,N/A,,Overcast,210,2014-03-22 07:35:00
3:55 AM,53.8,26.2,35,29.76,10.0,SW,12.7,-,N/A,,Overcast,220,2014-03-22 07:55:00
4:15 AM,53.6,27.1,36,29.77,10.0,SW,9.2,-,N/A,,Mostly Cloudy,220,2014-03-22 08:15:00
4:35 AM,52.2,28.4,40,29.79,10.0,SW,9.2,-,N/A,,Scattered Clouds,230,2014-03-22 08:35:00
4:55 AM,52.5,28.8,40,29.79,10.0,WSW,13.8,-,N/A,,Mostly Cloudy,250,2014-03-22 08:55:00
5:15 AM,53.4,29.7,40,29.81,10.0,WSW,10.4,-,N/A,,Overcast,250,2014-03-22 09:15:00
5:35 AM,52.9,31.1,43,29.83,10.0,WNW,15.0,21.9,N/A,,Scattered Clouds,290,2014-03-22 09:35:00
5:55 AM,52.5,34.5,50,29.85,10.0,NW,16.1,26.5,N/A,,Scattered Clouds,310,2014-03-22 09:55:00
6:15 AM,50.9,35.6,56,29.86,10.0,WNW,12.7,24.2,N/A,,Scattered Clouds,290,2014-03-22 10:15:00
6:35 AM,49.8,35.8,59,29.88,10.0,WNW,15.0,23.0,N/A,,Scattered Clouds,300,2014-03-22 10:35:00
6:55 AM,48.7,35.4,60,29.90,10.0,WNW,17.3,21.9,N/A,,Clear,300,2014-03-22 10:55:00
7:15 AM,47.8,33.6,58,29.92,10.0,WNW,9.2,12.7,N/A,,Clear,290,2014-03-22 11:15:00
7:35 AM,46.8,33.1,59,29.94,10.0,West,12.7,17.3,N/A,,Clear,280,2014-03-22 11:35:00
7:55 AM,45.9,32.0,58,29.95,10.0,West,11.5,20.7,N/A,,Clear,280,2014-03-22 11:55:00
8:15 AM,45.0,32.0,60,29.96,10.0,WNW,10.4,-,N/A,,Clear,290,2014-03-22 12:15:00
8:35 AM,44.8,31.8,60,29.97,10.0,West,9.2,-,N/A,,Clear,280,2014-03-22 12:35:00
8:55 AM,45.5,32.0,59,29.98,10.0,West,8.1,-,N/A,,Clear,280,2014-03-22 12:55:00
9:15 AM,45.9,31.5,57,29.99,10.0,WNW,18.4,24.2,N/A,,Clear,300,2014-03-22 13:15:00
9:35 AM,45.9,31.3,57,30.01,10.0,NW,15.0,-,N/A,,Clear,310,2014-03-22 13:35:00
9:55 AM,46.8,31.5,55,30.02,10.0,NW,12.7,-,N/A,,Clear,320,2014-03-22 13:55:00
10:15 AM,47.1,31.5,55,30.03,10.0,NNW,9.2,-,N/A,,Scattered Clouds,330,2014-03-22 14:15:00
10:35 AM,47.1,31.6,55,30.04,10.0,WNW,10.4,-,N/A,,Overcast,300,2014-03-22 14:35:00
10:55 AM,46.9,32.0,56,30.05,10.0,NW,10.4,-,N/A,,Overcast,310,2014-03-22 14:55:00
11:15 AM,46.9,31.8,56,30.06,10.0,NW,9.2,-,N/A,,Overcast,320,2014-03-22 15:15:00
11:35 AM,46.6,32.0,57,30.07,10.0,NNW,9.2,-,N/A,,Overcast,330,2014-03-22 15:35:00
11:55 AM,46.2,31.8,57,30.07,10.0,NW,6.9,-,N/A,,Overcast,320,2014-03-22 15:55:00
12:15 PM,47.1,31.3,54,30.08,10.0,WNW,5.8,-,N/A,,Overcast,300,2014-03-22 16:15:00
12:35 PM,47.8,30.7,52,30.08,10.0,NNW,6.9,-,N/A,,Overcast,330,2014-03-22 16:35:00
12:55 PM,48.0,30.6,51,30.08,10.0,NW,6.9,-,N/A,,Mostly Cloudy,320,2014-03-22 16:55:00
1:15 PM,49.3,30.4,48,30.07,10.0,NW,8.1,-,N/A,,Mostly Cloudy,320,2014-03-22 17:15:00
1:55 PM,50.9,29.8,44,30.07,10.0,NNW,10.4,16.1,N/A,,Overcast,340,2014-03-22 17:55:00
2:15 PM,50.5,29.3,44,30.06,10.0,NNW,10.4,17.3,N/A,,Mostly Cloudy,330,2014-03-22 18:15:00
2:35 PM,50.5,28.8,43,30.06,10.0,NNW,8.1,-,N/A,,Overcast,330,2014-03-22 18:35:00
2:55 PM,51.1,28.4,42,30.06,10.0,NW,12.7,16.1,N/A,,Overcast,320,2014-03-22 18:55:00
3:15 PM,51.1,28.4,42,30.06,10.0,NNW,9.2,-,N/A,,Overcast,330,2014-03-22 19:15:00
3:35 PM,51.1,29.1,43,30.06,10.0,NW,11.5,-,N/A,,Overcast,310,2014-03-22 19:35:00
3:55 PM,50.7,28.2,42,30.07,10.0,WNW,8.1,16.1,N/A,,Overcast,300,2014-03-22 19:55:00
4:15 PM,50.4,28.0,42,30.06,10.0,NW,11.5,-,N/A,,Overcast,310,2014-03-22 20:15:00
4:35 PM,50.4,27.7,42,30.06,10.0,NNW,9.2,-,N/A,,Overcast,330,2014-03-22 20:35:00
4:55 PM,50.0,28.0,43,30.06,10.0,NW,10.4,16.1,N/A,,Overcast,320,2014-03-22 20:55:00
5:15 PM,50.0,28.4,43,30.06,10.0,NNW,9.2,-,N/A,,Overcast,330,2014-03-22 21:15:00
5:35 PM,49.6,28.2,44,30.07,10.0,WNW,10.4,-,N/A,,Overcast,300,2014-03-22 21:35:00
5:55 PM,48.7,28.4,45,30.08,10.0,NW,11.5,-,N/A,,Overcast,310,2014-03-22 21:55:00
6:15 PM,47.8,28.0,46,30.09,10.0,WNW,12.7,-,N/A,,Overcast,300,2014-03-22 22:15:00
6:35 PM,47.3,27.7,47,30.10,10.0,NW,12.7,-,N/A,,Overcast,310,2014-03-22 22:35:00
6:55 PM,46.2,28.0,49,30.11,10.0,NNW,11.5,-,N/A,,Overcast,330,2014-03-22 22:55:00
7:15 PM,45.1,28.6,52,30.12,10.0,NNW,12.7,-,N/A,,Overcast,330,2014-03-22 23:15:00
7:35 PM,44.4,28.4,53,30.13,10.0,NW,12.7,18.4,N/A,,Overcast,310,2014-03-22 23:35:00
7:55 PM,43.7,28.4,55,30.13,10.0,NW,10.4,-,N/A,,Overcast,320,2014-03-22 23:55:00
8:15 PM,43.0,28.4,56,30.13,10.0,NW,12.7,-,N/A,,Overcast,320,2014-03-23 00:15:00
8:35 PM,42.3,27.7,56,30.13,10.0,NW,10.4,-,N/A,,Overcast,320,2014-03-23 00:35:00
8:55 PM,41.9,28.2,58,30.14,10.0,NW,9.2,-,N/A,,Overcast,320,2014-03-23 00:55:00
9:15 PM,41.5,28.6,60,30.15,10.0,WNW,10.4,-,N/A,,Overcast,300,2014-03-23 01:15:00
9:35 PM,41.5,28.4,60,30.15,10.0,NW,10.4,-,N/A,,Mostly Cloudy,310,2014-03-23 01:35:00
9:55 PM,41.9,28.2,58,30.15,10.0,NW,10.4,-,N/A,,Overcast,310,2014-03-23 01:55:00
10:15 PM,41.7,28.0,58,30.15,10.0,NNW,12.7,17.3,N/A,,Overcast,330,2014-03-23 02:15:00
10:35 PM,41.2,27.0,57,30.15,10.0,NNW,10.4,-,N/A,,Overcast,340,2014-03-23 02:35:00
10:55 PM,41.0,26.1,55,30.16,10.0,NNW,9.2,-,N/A,,Overcast,330,2014-03-23 02:55:00
11:15 PM,40.5,24.6,53,30.16,10.0,NNW,6.9,-,N/A,,Scattered Clouds,340,2014-03-23 03:15:00
11:35 PM,40.1,23.9,52,30.17,10.0,NNW,5.8,-,N/A,,Clear,340,2014-03-23 03:35:00
11:55 PM,39.6,23.5,53,30.17,10.0,NNW,5.8,-,N/A,,Clear,340,2014-03-23 03:55:00